sensor_id;sensor_type;location;lat;lon;timestamp;temperature;humidity
7518;DHT22;3800;48.922;9.444;2022-07-29T00:01:38;18.90;99.90
7518;DHT22;3800;48.922;9.444;2022-07-29T00:04:07;18.90;99.90
7518;DHT22;3800;48.922;9.444;2022-07-29T00:06:36;18.90;99.90
7518;DHT22;3800;48.922;9.444;2022-07-29T00:09:04;18.90;99.90
7518;DHT22;3800;48.922;9.444;2022-07-29T00:11:33;18.90;99.90
7518;DHT22;3800;48.922;9.444;2022-07-29T00:14:01;18.90;99.90
7518;DHT22;3800;48.922;9.444;2022-07-29T00:16:30;18.90;99.90
7518;DHT22;3800;48.922;9.444;2022-07-29T00:18:59;18.90;99.90
7518;DHT22;3800;48.922;9.444;2022-07-29T00:21:27;18.90;99.90
7518;DHT22;3800;48.922;9.444;2022-07-29T00:23:56;18.90;99.90
7518;DHT22;3800;48.922;9.444;2022-07-29T00:26:25;18.80;99.90
7518;DHT22;3800;48.922;9.444;2022-07-29T00:28:53;18.80;99.90
7518;DHT22;3800;48.922;9.444;2022-07-29T00:31:22;18.60;99.90
7518;DHT22;3800;48.922;9.444;2022-07-29T00:33:50;18.50;99.90
7518;DHT22;3800;48.922;9.444;2022-07-29T00:36:19;18.40;99.90
7518;DHT22;3800;48.922;9.444;2022-07-29T00:38:49;18.30;99.90
7518;DHT22;3800;48.922;9.444;2022-07-29T00:41:17;18.30;99.90
7518;DHT22;3800;48.922;9.444;2022-07-29T00:43:45;18.20;99.90
7518;DHT22;3800;48.922;9.444;2022-07-29T00:46:13;18.10;99.90
7518;DHT22;3800;48.922;9.444;2022-07-29T00:48:41;18.10;99.90
7518;DHT22;3800;48.922;9.444;2022-07-29T00:51:10;18.00;99.90
7518;DHT22;3800;48.922;9.444;2022-07-29T00:53:39;18.00;99.90
7518;DHT22;3800;48.922;9.444;2022-07-29T00:56:08;17.90;99.90
7518;DHT22;3800;48.922;9.444;2022-07-29T00:58:36;17.90;99.90
7518;DHT22;3800;48.922;9.444;2022-07-29T01:01:04;17.90;99.90
7518;DHT22;3800;48.922;9.444;2022-07-29T01:03:32;17.80;99.90
7518;DHT22;3800;48.922;9.444;2022-07-29T01:06:01;17.70;99.90
7518;DHT22;3800;48.922;9.444;2022-07-29T01:08:29;17.70;99.90
7518;DHT22;3800;48.922;9.444;2022-07-29T01:10:57;17.60;99.90
7518;DHT22;3800;48.922;9.444;2022-07-29T01:13:25;17.60;99.90
7518;DHT22;3800;48.922;9.444;2022-07-29T01:15:56;17.50;99.90
7518;DHT22;3800;48.922;9.444;2022-07-29T01:18:36;17.50;99.90
7518;DHT22;3800;48.922;9.444;2022-07-29T01:21:33;17.50;99.90
7518;DHT22;3800;48.922;9.444;2022-07-29T01:24:10;17.40;99.90
7518;DHT22;3800;48.922;9.444;2022-07-29T01:26:47;17.40;99.90
7518;DHT22;3800;48.922;9.444;2022-07-29T01:29:49;17.30;99.90
7518;DHT22;3800;48.922;9.444;2022-07-29T01:32:03;17.30;99.90
7518;DHT22;3800;48.922;9.444;2022-07-29T01:34:35;17.30;99.90
7518;DHT22;3800;48.922;9.444;2022-07-29T01:38:17;17.30;99.90
7518;DHT22;3800;48.922;9.444;2022-07-29T01:39:54;17.30;99.90
7518;DHT22;3800;48.922;9.444;2022-07-29T01:42:29;17.30;99.90
7518;DHT22;3800;48.922;9.444;2022-07-29T01:44:59;17.30;99.90
7518;DHT22;3800;48.922;9.444;2022-07-29T01:47:33;17.20;99.90
7518;DHT22;3800;48.922;9.444;2022-07-29T01:50:00;17.20;99.90
7518;DHT22;3800;48.922;9.444;2022-07-29T01:52:36;17.20;99.90
7518;DHT22;3800;48.922;9.444;2022-07-29T01:55:04;17.20;99.90
7518;DHT22;3800;48.922;9.444;2022-07-29T01:57:31;17.20;99.90
7518;DHT22;3800;48.922;9.444;2022-07-29T01:59:59;17.20;99.90
7518;DHT22;3800;48.922;9.444;2022-07-29T02:02:27;17.10;99.90
7518;DHT22;3800;48.922;9.444;2022-07-29T02:04:55;17.10;99.90
7518;DHT22;3800;48.922;9.444;2022-07-29T02:07:23;17.00;99.90
7518;DHT22;3800;48.922;9.444;2022-07-29T02:09:52;17.00;99.90
7518;DHT22;3800;48.922;9.444;2022-07-29T02:12:20;17.00;99.90
7518;DHT22;3800;48.922;9.444;2022-07-29T02:14:49;17.00;99.90
7518;DHT22;3800;48.922;9.444;2022-07-29T02:17:19;17.00;99.90
7518;DHT22;3800;48.922;9.444;2022-07-29T02:19:45;17.00;99.90
7518;DHT22;3800;48.922;9.444;2022-07-29T02:22:13;17.00;99.90
7518;DHT22;3800;48.922;9.444;2022-07-29T02:24:41;17.00;99.90
7518;DHT22;3800;48.922;9.444;2022-07-29T02:27:09;17.00;99.90
7518;DHT22;3800;48.922;9.444;2022-07-29T02:29:38;17.00;99.90
7518;DHT22;3800;48.922;9.444;2022-07-29T02:32:06;17.00;99.90
7518;DHT22;3800;48.922;9.444;2022-07-29T02:34:34;16.90;99.90
7518;DHT22;3800;48.922;9.444;2022-07-29T02:37:03;16.80;99.90
7518;DHT22;3800;48.922;9.444;2022-07-29T02:39:31;16.80;99.90
7518;DHT22;3800;48.922;9.444;2022-07-29T02:42:01;16.80;99.90
7518;DHT22;3800;48.922;9.444;2022-07-29T02:44:29;16.70;99.90
7518;DHT22;3800;48.922;9.444;2022-07-29T02:49:49;16.60;99.90
7518;DHT22;3800;48.922;9.444;2022-07-29T02:52:24;16.60;99.90
7518;DHT22;3800;48.922;9.444;2022-07-29T02:54:56;16.70;99.90
7518;DHT22;3800;48.922;9.444;2022-07-29T02:57:29;16.70;99.90
7518;DHT22;3800;48.922;9.444;2022-07-29T02:59:57;16.70;99.90
7518;DHT22;3800;48.922;9.444;2022-07-29T03:02:25;16.60;99.90
7518;DHT22;3800;48.922;9.444;2022-07-29T03:04:54;16.60;99.90
7518;DHT22;3800;48.922;9.444;2022-07-29T03:07:23;16.60;99.90
7518;DHT22;3800;48.922;9.444;2022-07-29T03:09:51;16.60;99.90
7518;DHT22;3800;48.922;9.444;2022-07-29T03:12:19;16.50;99.90
7518;DHT22;3800;48.922;9.444;2022-07-29T03:14:48;16.50;99.90
7518;DHT22;3800;48.922;9.444;2022-07-29T03:17:16;16.50;99.90
7518;DHT22;3800;48.922;9.444;2022-07-29T03:19:44;16.50;99.90
7518;DHT22;3800;48.922;9.444;2022-07-29T03:22:12;16.40;99.90
7518;DHT22;3800;48.922;9.444;2022-07-29T03:24:40;16.30;99.90
7518;DHT22;3800;48.922;9.444;2022-07-29T03:27:09;16.20;99.90
7518;DHT22;3800;48.922;9.444;2022-07-29T03:29:37;16.20;99.90
7518;DHT22;3800;48.922;9.444;2022-07-29T03:32:06;16.10;99.90
7518;DHT22;3800;48.922;9.444;2022-07-29T03:34:34;16.10;99.90
7518;DHT22;3800;48.922;9.444;2022-07-29T03:37:02;16.10;99.90
7518;DHT22;3800;48.922;9.444;2022-07-29T03:39:31;16.10;99.90
7518;DHT22;3800;48.922;9.444;2022-07-29T03:41:59;16.00;99.90
7518;DHT22;3800;48.922;9.444;2022-07-29T03:44:27;15.90;99.90
7518;DHT22;3800;48.922;9.444;2022-07-29T03:46:55;15.90;99.90
7518;DHT22;3800;48.922;9.444;2022-07-29T03:49:24;15.90;99.90
7518;DHT22;3800;48.922;9.444;2022-07-29T03:51:52;15.90;99.90
7518;DHT22;3800;48.922;9.444;2022-07-29T03:54:20;15.90;99.90
7518;DHT22;3800;48.922;9.444;2022-07-29T03:56:48;15.90;99.90
7518;DHT22;3800;48.922;9.444;2022-07-29T03:59:17;16.00;99.90
7518;DHT22;3800;48.922;9.444;2022-07-29T04:01:45;16.00;99.90
7518;DHT22;3800;48.922;9.444;2022-07-29T04:04:13;16.00;99.90
7518;DHT22;3800;48.922;9.444;2022-07-29T04:06:44;16.00;99.90
7518;DHT22;3800;48.922;9.444;2022-07-29T04:09:11;16.00;99.90
7518;DHT22;3800;48.922;9.444;2022-07-29T04:11:40;16.00;99.90
7518;DHT22;3800;48.922;9.444;2022-07-29T04:14:08;16.00;99.90
7518;DHT22;3800;48.922;9.444;2022-07-29T04:16:36;16.00;99.90
7518;DHT22;3800;48.922;9.444;2022-07-29T04:19:04;16.10;99.90
7518;DHT22;3800;48.922;9.444;2022-07-29T04:21:38;16.10;99.90
7518;DHT22;3800;48.922;9.444;2022-07-29T04:24:07;16.20;99.90
7518;DHT22;3800;48.922;9.444;2022-07-29T04:26:35;16.20;99.90
7518;DHT22;3800;48.922;9.444;2022-07-29T04:29:04;16.30;99.90
7518;DHT22;3800;48.922;9.444;2022-07-29T04:31:33;16.30;99.90
7518;DHT22;3800;48.922;9.444;2022-07-29T04:34:01;16.30;99.90
7518;DHT22;3800;48.922;9.444;2022-07-29T04:36:29;16.30;99.90
7518;DHT22;3800;48.922;9.444;2022-07-29T04:38:57;16.30;99.90
7518;DHT22;3800;48.922;9.444;2022-07-29T04:41:26;16.30;99.90
7518;DHT22;3800;48.922;9.444;2022-07-29T04:43:54;16.30;99.90
7518;DHT22;3800;48.922;9.444;2022-07-29T04:46:22;16.30;99.90
7518;DHT22;3800;48.922;9.444;2022-07-29T04:48:50;16.30;99.90
7518;DHT22;3800;48.922;9.444;2022-07-29T04:51:19;16.30;99.90
7518;DHT22;3800;48.922;9.444;2022-07-29T04:53:48;16.30;99.90
7518;DHT22;3800;48.922;9.444;2022-07-29T04:56:16;16.30;99.90
7518;DHT22;3800;48.922;9.444;2022-07-29T04:58:45;16.40;99.90
7518;DHT22;3800;48.922;9.444;2022-07-29T05:01:13;16.40;99.90
7518;DHT22;3800;48.922;9.444;2022-07-29T05:03:41;16.50;99.90
7518;DHT22;3800;48.922;9.444;2022-07-29T05:06:09;16.50;99.90
7518;DHT22;3800;48.922;9.444;2022-07-29T05:08:37;16.50;99.90
7518;DHT22;3800;48.922;9.444;2022-07-29T05:11:06;16.60;99.90
7518;DHT22;3800;48.922;9.444;2022-07-29T05:13:34;16.70;99.90
7518;DHT22;3800;48.922;9.444;2022-07-29T05:16:03;16.80;99.90
7518;DHT22;3800;48.922;9.444;2022-07-29T05:18:31;16.90;99.90
7518;DHT22;3800;48.922;9.444;2022-07-29T05:21:00;17.00;99.90
7518;DHT22;3800;48.922;9.444;2022-07-29T05:23:28;17.00;99.90
7518;DHT22;3800;48.922;9.444;2022-07-29T05:25:56;17.10;99.90
7518;DHT22;3800;48.922;9.444;2022-07-29T05:28:25;17.20;99.90
7518;DHT22;3800;48.922;9.444;2022-07-29T05:30:53;17.20;99.90
7518;DHT22;3800;48.922;9.444;2022-07-29T05:33:22;17.30;99.90
7518;DHT22;3800;48.922;9.444;2022-07-29T05:35:50;17.40;99.90
7518;DHT22;3800;48.922;9.444;2022-07-29T05:38:19;17.50;99.90
7518;DHT22;3800;48.922;9.444;2022-07-29T05:40:47;17.60;99.90
7518;DHT22;3800;48.922;9.444;2022-07-29T05:43:15;17.70;99.90
7518;DHT22;3800;48.922;9.444;2022-07-29T05:45:43;17.80;99.90
7518;DHT22;3800;48.922;9.444;2022-07-29T05:48:13;17.90;99.90
7518;DHT22;3800;48.922;9.444;2022-07-29T05:50:41;17.90;99.90
7518;DHT22;3800;48.922;9.444;2022-07-29T05:53:10;17.90;99.90
7518;DHT22;3800;48.922;9.444;2022-07-29T05:55:38;18.00;99.90
7518;DHT22;3800;48.922;9.444;2022-07-29T05:58:06;18.00;99.90
7518;DHT22;3800;48.922;9.444;2022-07-29T06:00:35;18.10;99.90
7518;DHT22;3800;48.922;9.444;2022-07-29T06:03:04;18.20;99.90
7518;DHT22;3800;48.922;9.444;2022-07-29T06:05:32;18.20;99.90
7518;DHT22;3800;48.922;9.444;2022-07-29T06:08:00;18.30;99.90
7518;DHT22;3800;48.922;9.444;2022-07-29T06:10:29;18.50;99.90
7518;DHT22;3800;48.922;9.444;2022-07-29T06:12:57;18.50;99.90
7518;DHT22;3800;48.922;9.444;2022-07-29T06:15:26;18.70;99.90
7518;DHT22;3800;48.922;9.444;2022-07-29T06:17:55;18.70;99.90
7518;DHT22;3800;48.922;9.444;2022-07-29T06:20:23;18.80;99.90
7518;DHT22;3800;48.922;9.444;2022-07-29T06:22:51;18.90;99.90
7518;DHT22;3800;48.922;9.444;2022-07-29T06:25:20;19.10;99.90
7518;DHT22;3800;48.922;9.444;2022-07-29T06:27:48;19.20;99.90
7518;DHT22;3800;48.922;9.444;2022-07-29T06:30:16;19.40;99.90
7518;DHT22;3800;48.922;9.444;2022-07-29T06:32:44;19.60;99.90
7518;DHT22;3800;48.922;9.444;2022-07-29T06:35:13;19.70;99.90
7518;DHT22;3800;48.922;9.444;2022-07-29T06:37:41;19.80;99.90
7518;DHT22;3800;48.922;9.444;2022-07-29T06:40:10;19.90;99.90
7518;DHT22;3800;48.922;9.444;2022-07-29T06:42:44;20.00;99.90
7518;DHT22;3800;48.922;9.444;2022-07-29T06:45:12;20.20;99.90
7518;DHT22;3800;48.922;9.444;2022-07-29T06:47:40;20.30;99.90
7518;DHT22;3800;48.922;9.444;2022-07-29T06:50:09;20.40;99.90
7518;DHT22;3800;48.922;9.444;2022-07-29T06:52:37;20.50;99.90
7518;DHT22;3800;48.922;9.444;2022-07-29T06:55:06;20.60;99.90
7518;DHT22;3800;48.922;9.444;2022-07-29T06:57:34;20.70;99.90
7518;DHT22;3800;48.922;9.444;2022-07-29T07:00:03;20.70;99.90
7518;DHT22;3800;48.922;9.444;2022-07-29T07:02:32;20.90;99.90
7518;DHT22;3800;48.922;9.444;2022-07-29T07:05:00;20.90;99.90
7518;DHT22;3800;48.922;9.444;2022-07-29T07:07:28;21.00;99.90
7518;DHT22;3800;48.922;9.444;2022-07-29T07:09:57;21.10;99.90
7518;DHT22;3800;48.922;9.444;2022-07-29T07:12:25;21.10;99.90
7518;DHT22;3800;48.922;9.444;2022-07-29T07:14:53;21.20;99.90
7518;DHT22;3800;48.922;9.444;2022-07-29T07:17:21;21.20;99.90
7518;DHT22;3800;48.922;9.444;2022-07-29T07:19:49;21.30;99.90
7518;DHT22;3800;48.922;9.444;2022-07-29T07:22:18;21.30;99.90
7518;DHT22;3800;48.922;9.444;2022-07-29T07:24:47;21.30;99.90
7518;DHT22;3800;48.922;9.444;2022-07-29T07:27:15;21.40;99.90
7518;DHT22;3800;48.922;9.444;2022-07-29T07:29:44;21.50;99.90
7518;DHT22;3800;48.922;9.444;2022-07-29T07:32:12;21.70;99.90
7518;DHT22;3800;48.922;9.444;2022-07-29T07:34:40;21.80;99.90
7518;DHT22;3800;48.922;9.444;2022-07-29T07:37:08;21.90;99.90
7518;DHT22;3800;48.922;9.444;2022-07-29T07:39:37;22.10;99.90
7518;DHT22;3800;48.922;9.444;2022-07-29T07:42:06;22.00;99.90
7518;DHT22;3800;48.922;9.444;2022-07-29T07:44:35;22.10;99.90
7518;DHT22;3800;48.922;9.444;2022-07-29T07:47:03;22.10;99.90
7518;DHT22;3800;48.922;9.444;2022-07-29T07:49:32;22.40;99.90
7518;DHT22;3800;48.922;9.444;2022-07-29T07:52:01;22.30;99.90
7518;DHT22;3800;48.922;9.444;2022-07-29T07:54:30;22.50;99.90
7518;DHT22;3800;48.922;9.444;2022-07-29T07:56:58;22.50;99.90
7518;DHT22;3800;48.922;9.444;2022-07-29T07:59:26;22.60;99.90
7518;DHT22;3800;48.922;9.444;2022-07-29T08:01:55;22.70;99.90
7518;DHT22;3800;48.922;9.444;2022-07-29T08:04:23;22.70;99.90
7518;DHT22;3800;48.922;9.444;2022-07-29T08:06:52;22.70;99.90
7518;DHT22;3800;48.922;9.444;2022-07-29T08:09:20;22.80;99.90
7518;DHT22;3800;48.922;9.444;2022-07-29T08:11:48;22.70;99.90
7518;DHT22;3800;48.922;9.444;2022-07-29T08:14:17;22.90;99.90
7518;DHT22;3800;48.922;9.444;2022-07-29T08:16:45;23.00;99.90
7518;DHT22;3800;48.922;9.444;2022-07-29T08:19:13;23.20;99.90
7518;DHT22;3800;48.922;9.444;2022-07-29T08:21:42;23.10;99.90
7518;DHT22;3800;48.922;9.444;2022-07-29T08:24:11;23.00;99.90
7518;DHT22;3800;48.922;9.444;2022-07-29T08:26:44;23.20;99.90
7518;DHT22;3800;48.922;9.444;2022-07-29T08:29:13;23.10;99.90
7518;DHT22;3800;48.922;9.444;2022-07-29T08:31:42;23.10;99.90
7518;DHT22;3800;48.922;9.444;2022-07-29T08:34:10;23.00;99.90
7518;DHT22;3800;48.922;9.444;2022-07-29T08:36:39;23.10;99.90
7518;DHT22;3800;48.922;9.444;2022-07-29T08:39:08;23.20;99.90
7518;DHT22;3800;48.922;9.444;2022-07-29T08:41:36;23.20;99.90
7518;DHT22;3800;48.922;9.444;2022-07-29T08:44:05;23.20;99.90
7518;DHT22;3800;48.922;9.444;2022-07-29T08:46:33;23.30;99.90
7518;DHT22;3800;48.922;9.444;2022-07-29T08:49:01;23.50;99.90
7518;DHT22;3800;48.922;9.444;2022-07-29T08:51:30;23.70;99.90
7518;DHT22;3800;48.922;9.444;2022-07-29T08:53:58;23.90;99.90
7518;DHT22;3800;48.922;9.444;2022-07-29T08:56:26;24.10;99.90
7518;DHT22;3800;48.922;9.444;2022-07-29T08:58:54;24.40;99.90
7518;DHT22;3800;48.922;9.444;2022-07-29T09:01:23;24.50;99.90
7518;DHT22;3800;48.922;9.444;2022-07-29T09:03:51;24.60;99.90
7518;DHT22;3800;48.922;9.444;2022-07-29T09:06:19;24.60;99.90
7518;DHT22;3800;48.922;9.444;2022-07-29T09:08:47;24.70;99.90
7518;DHT22;3800;48.922;9.444;2022-07-29T09:11:17;24.80;99.90
7518;DHT22;3800;48.922;9.444;2022-07-29T09:13:45;24.80;99.90
7518;DHT22;3800;48.922;9.444;2022-07-29T09:16:13;24.90;99.90
7518;DHT22;3800;48.922;9.444;2022-07-29T09:18:42;25.00;99.90
7518;DHT22;3800;48.922;9.444;2022-07-29T09:21:11;25.00;99.90
7518;DHT22;3800;48.922;9.444;2022-07-29T09:26:31;24.90;99.90
7518;DHT22;3800;48.922;9.444;2022-07-29T09:28:59;24.90;99.90
7518;DHT22;3800;48.922;9.444;2022-07-29T09:31:33;24.90;99.90
7518;DHT22;3800;48.922;9.444;2022-07-29T09:34:03;25.10;99.90
7518;DHT22;3800;48.922;9.444;2022-07-29T09:36:38;25.40;99.90
7518;DHT22;3800;48.922;9.444;2022-07-29T09:39:15;25.40;99.90
7518;DHT22;3800;48.922;9.444;2022-07-29T09:41:45;25.40;99.90
7518;DHT22;3800;48.922;9.444;2022-07-29T09:44:13;25.40;99.90
7518;DHT22;3800;48.922;9.444;2022-07-29T09:46:53;25.50;99.90
7518;DHT22;3800;48.922;9.444;2022-07-29T09:49:25;25.60;99.90
7518;DHT22;3800;48.922;9.444;2022-07-29T09:52:04;25.80;99.90
7518;DHT22;3800;48.922;9.444;2022-07-29T09:54:31;25.80;99.90
7518;DHT22;3800;48.922;9.444;2022-07-29T09:57:00;25.90;99.90
7518;DHT22;3800;48.922;9.444;2022-07-29T09:59:29;25.90;99.90
7518;DHT22;3800;48.922;9.444;2022-07-29T10:01:57;25.90;99.90
7518;DHT22;3800;48.922;9.444;2022-07-29T10:04:42;25.90;99.90
7518;DHT22;3800;48.922;9.444;2022-07-29T10:07:10;25.90;99.90
7518;DHT22;3800;48.922;9.444;2022-07-29T10:09:38;26.10;99.90
7518;DHT22;3800;48.922;9.444;2022-07-29T10:12:08;26.10;99.90
7518;DHT22;3800;48.922;9.444;2022-07-29T10:14:37;26.10;99.90
7518;DHT22;3800;48.922;9.444;2022-07-29T10:17:05;26.10;99.90
7518;DHT22;3800;48.922;9.444;2022-07-29T10:19:33;26.20;99.90
7518;DHT22;3800;48.922;9.444;2022-07-29T10:22:02;26.20;99.90
7518;DHT22;3800;48.922;9.444;2022-07-29T10:24:30;26.10;99.90
7518;DHT22;3800;48.922;9.444;2022-07-29T10:26:58;26.10;99.90
7518;DHT22;3800;48.922;9.444;2022-07-29T10:29:26;26.20;99.90
7518;DHT22;3800;48.922;9.444;2022-07-29T10:32:02;26.40;99.90
7518;DHT22;3800;48.922;9.444;2022-07-29T10:34:36;26.40;99.90
7518;DHT22;3800;48.922;9.444;2022-07-29T10:37:12;26.40;99.90
7518;DHT22;3800;48.922;9.444;2022-07-29T10:42:37;26.30;99.90
7518;DHT22;3800;48.922;9.444;2022-07-29T10:45:05;26.20;99.90
7518;DHT22;3800;48.922;9.444;2022-07-29T10:47:34;26.20;99.90
7518;DHT22;3800;48.922;9.444;2022-07-29T10:50:03;26.10;99.90
7518;DHT22;3800;48.922;9.444;2022-07-29T10:55:34;25.90;99.90
7518;DHT22;3800;48.922;9.444;2022-07-29T10:58:19;25.90;99.90
7518;DHT22;3800;48.922;9.444;2022-07-29T11:00:49;25.80;99.90
7518;DHT22;3800;48.922;9.444;2022-07-29T11:06:03;25.70;99.90
7518;DHT22;3800;48.922;9.444;2022-07-29T11:08:32;25.50;99.90
7518;DHT22;3800;48.922;9.444;2022-07-29T11:14:03;25.40;99.90
7518;DHT22;3800;48.922;9.444;2022-07-29T11:16:57;25.30;99.90
7518;DHT22;3800;48.922;9.444;2022-07-29T11:21:53;25.30;99.90
7518;DHT22;3800;48.922;9.444;2022-07-29T11:24:23;25.20;99.90
7518;DHT22;3800;48.922;9.444;2022-07-29T11:29:38;25.10;99.90
7518;DHT22;3800;48.922;9.444;2022-07-29T11:32:09;25.10;99.90
7518;DHT22;3800;48.922;9.444;2022-07-29T11:34:36;25.00;99.90
7518;DHT22;3800;48.922;9.444;2022-07-29T11:37:21;25.00;99.90
7518;DHT22;3800;48.922;9.444;2022-07-29T11:40:08;24.90;99.90
7518;DHT22;3800;48.922;9.444;2022-07-29T11:42:37;24.80;99.90
7518;DHT22;3800;48.922;9.444;2022-07-29T11:45:16;24.80;99.90
7518;DHT22;3800;48.922;9.444;2022-07-29T11:47:49;24.80;99.90
7518;DHT22;3800;48.922;9.444;2022-07-29T11:50:18;24.70;99.90
7518;DHT22;3800;48.922;9.444;2022-07-29T11:52:46;24.70;99.90
7518;DHT22;3800;48.922;9.444;2022-07-29T11:55:16;24.70;99.90
7518;DHT22;3800;48.922;9.444;2022-07-29T11:57:45;24.60;99.90
7518;DHT22;3800;48.922;9.444;2022-07-29T12:00:21;24.60;99.90
7518;DHT22;3800;48.922;9.444;2022-07-29T12:02:52;24.60;99.90
7518;DHT22;3800;48.922;9.444;2022-07-29T12:05:29;24.70;99.90
7518;DHT22;3800;48.922;9.444;2022-07-29T12:07:49;24.70;99.90
7518;DHT22;3800;48.922;9.444;2022-07-29T12:10:17;24.60;99.90
7518;DHT22;3800;48.922;9.444;2022-07-29T12:12:50;24.50;99.90
7518;DHT22;3800;48.922;9.444;2022-07-29T12:15:15;24.50;99.90
7518;DHT22;3800;48.922;9.444;2022-07-29T12:17:43;24.50;99.90
7518;DHT22;3800;48.922;9.444;2022-07-29T12:20:11;24.50;99.90
7518;DHT22;3800;48.922;9.444;2022-07-29T12:22:41;24.30;99.90
7518;DHT22;3800;48.922;9.444;2022-07-29T12:25:12;24.30;99.90
7518;DHT22;3800;48.922;9.444;2022-07-29T12:27:39;24.30;99.90
7518;DHT22;3800;48.922;9.444;2022-07-29T12:30:10;24.20;99.90
7518;DHT22;3800;48.922;9.444;2022-07-29T12:32:39;24.10;99.90
7518;DHT22;3800;48.922;9.444;2022-07-29T12:35:10;24.10;99.90
7518;DHT22;3800;48.922;9.444;2022-07-29T12:37:38;24.10;99.90
7518;DHT22;3800;48.922;9.444;2022-07-29T12:40:07;24.10;99.90
7518;DHT22;3800;48.922;9.444;2022-07-29T12:42:35;24.10;99.90
7518;DHT22;3800;48.922;9.444;2022-07-29T12:45:04;24.20;99.90
7518;DHT22;3800;48.922;9.444;2022-07-29T12:47:32;24.30;99.90
7518;DHT22;3800;48.922;9.444;2022-07-29T12:50:14;24.50;99.90
7518;DHT22;3800;48.922;9.444;2022-07-29T12:52:43;24.70;99.90
7518;DHT22;3800;48.922;9.444;2022-07-29T12:55:11;24.90;99.90
7518;DHT22;3800;48.922;9.444;2022-07-29T12:57:45;24.90;99.90
7518;DHT22;3800;48.922;9.444;2022-07-29T13:00:14;25.00;99.90
7518;DHT22;3800;48.922;9.444;2022-07-29T13:02:43;25.20;99.90
7518;DHT22;3800;48.922;9.444;2022-07-29T13:05:12;25.10;99.90
7518;DHT22;3800;48.922;9.444;2022-07-29T13:07:40;25.20;99.90
7518;DHT22;3800;48.922;9.444;2022-07-29T13:10:15;25.20;99.90
7518;DHT22;3800;48.922;9.444;2022-07-29T13:15:37;25.30;99.90
7518;DHT22;3800;48.922;9.444;2022-07-29T13:18:05;25.30;99.90
7518;DHT22;3800;48.922;9.444;2022-07-29T13:20:33;25.40;99.90
7518;DHT22;3800;48.922;9.444;2022-07-29T13:23:02;25.40;99.90
7518;DHT22;3800;48.922;9.444;2022-07-29T13:25:31;25.50;99.90
7518;DHT22;3800;48.922;9.444;2022-07-29T13:27:59;25.50;99.90
7518;DHT22;3800;48.922;9.444;2022-07-29T13:30:28;25.40;99.90
7518;DHT22;3800;48.922;9.444;2022-07-29T13:32:56;25.30;99.90
7518;DHT22;3800;48.922;9.444;2022-07-29T13:35:25;25.20;99.90
7518;DHT22;3800;48.922;9.444;2022-07-29T13:37:53;25.20;99.90
7518;DHT22;3800;48.922;9.444;2022-07-29T13:40:22;25.00;99.90
7518;DHT22;3800;48.922;9.444;2022-07-29T13:42:51;25.00;99.90
7518;DHT22;3800;48.922;9.444;2022-07-29T13:45:19;24.90;99.90
7518;DHT22;3800;48.922;9.444;2022-07-29T13:47:48;24.80;99.90
7518;DHT22;3800;48.922;9.444;2022-07-29T13:50:17;24.70;99.90
7518;DHT22;3800;48.922;9.444;2022-07-29T13:52:46;24.60;99.90
7518;DHT22;3800;48.922;9.444;2022-07-29T13:55:14;24.60;99.90
7518;DHT22;3800;48.922;9.444;2022-07-29T13:57:43;24.50;99.90
7518;DHT22;3800;48.922;9.444;2022-07-29T14:00:12;24.30;99.90
7518;DHT22;3800;48.922;9.444;2022-07-29T14:02:41;24.30;99.90
7518;DHT22;3800;48.922;9.444;2022-07-29T14:05:09;24.30;99.90
7518;DHT22;3800;48.922;9.444;2022-07-29T14:07:37;24.20;99.90
7518;DHT22;3800;48.922;9.444;2022-07-29T14:10:08;24.10;99.90
7518;DHT22;3800;48.922;9.444;2022-07-29T14:12:36;24.00;99.90
7518;DHT22;3800;48.922;9.444;2022-07-29T14:15:05;24.00;99.90
7518;DHT22;3800;48.922;9.444;2022-07-29T14:17:34;23.90;99.90
7518;DHT22;3800;48.922;9.444;2022-07-29T14:20:02;23.90;99.90
7518;DHT22;3800;48.922;9.444;2022-07-29T14:22:31;23.80;99.90
7518;DHT22;3800;48.922;9.444;2022-07-29T14:25:00;23.90;99.90
7518;DHT22;3800;48.922;9.444;2022-07-29T14:27:28;23.90;99.90
7518;DHT22;3800;48.922;9.444;2022-07-29T14:29:56;23.90;99.90
7518;DHT22;3800;48.922;9.444;2022-07-29T14:32:24;23.90;99.90
7518;DHT22;3800;48.922;9.444;2022-07-29T14:34:53;24.00;99.90
7518;DHT22;3800;48.922;9.444;2022-07-29T14:37:22;24.00;99.90
7518;DHT22;3800;48.922;9.444;2022-07-29T14:39:50;24.10;99.90
7518;DHT22;3800;48.922;9.444;2022-07-29T14:42:18;24.10;99.90
7518;DHT22;3800;48.922;9.444;2022-07-29T14:44:47;24.00;99.90
7518;DHT22;3800;48.922;9.444;2022-07-29T14:47:15;24.00;99.90
7518;DHT22;3800;48.922;9.444;2022-07-29T14:49:43;24.00;99.90
7518;DHT22;3800;48.922;9.444;2022-07-29T14:52:12;24.00;99.90
7518;DHT22;3800;48.922;9.444;2022-07-29T14:54:40;24.00;99.90
7518;DHT22;3800;48.922;9.444;2022-07-29T14:57:09;23.90;99.90
7518;DHT22;3800;48.922;9.444;2022-07-29T14:59:37;23.90;99.90
7518;DHT22;3800;48.922;9.444;2022-07-29T15:02:05;23.90;99.90
7518;DHT22;3800;48.922;9.444;2022-07-29T15:04:33;23.90;99.90
7518;DHT22;3800;48.922;9.444;2022-07-29T15:07:02;23.90;99.90
7518;DHT22;3800;48.922;9.444;2022-07-29T15:09:30;23.90;99.90
7518;DHT22;3800;48.922;9.444;2022-07-29T15:11:58;23.90;99.90
7518;DHT22;3800;48.922;9.444;2022-07-29T15:14:27;23.90;99.90
7518;DHT22;3800;48.922;9.444;2022-07-29T15:16:55;23.80;99.90
7518;DHT22;3800;48.922;9.444;2022-07-29T15:19:24;23.80;99.90
7518;DHT22;3800;48.922;9.444;2022-07-29T15:21:52;23.80;99.90
7518;DHT22;3800;48.922;9.444;2022-07-29T15:24:20;23.80;99.90
7518;DHT22;3800;48.922;9.444;2022-07-29T15:26:49;23.80;99.90
7518;DHT22;3800;48.922;9.444;2022-07-29T15:29:17;23.80;99.90
7518;DHT22;3800;48.922;9.444;2022-07-29T15:31:45;23.80;99.90
7518;DHT22;3800;48.922;9.444;2022-07-29T15:34:13;23.80;99.90
7518;DHT22;3800;48.922;9.444;2022-07-29T15:36:42;23.90;99.90
7518;DHT22;3800;48.922;9.444;2022-07-29T15:39:10;23.90;99.90
7518;DHT22;3800;48.922;9.444;2022-07-29T15:41:38;23.90;99.90
7518;DHT22;3800;48.922;9.444;2022-07-29T15:44:06;23.90;99.90
7518;DHT22;3800;48.922;9.444;2022-07-29T15:46:35;23.90;99.90
7518;DHT22;3800;48.922;9.444;2022-07-29T15:49:09;23.90;99.90
7518;DHT22;3800;48.922;9.444;2022-07-29T15:51:38;24.00;99.90
7518;DHT22;3800;48.922;9.444;2022-07-29T15:54:06;23.90;99.90
7518;DHT22;3800;48.922;9.444;2022-07-29T15:56:35;24.00;99.90
7518;DHT22;3800;48.922;9.444;2022-07-29T15:59:04;24.00;99.90
7518;DHT22;3800;48.922;9.444;2022-07-29T16:01:32;24.00;99.90
7518;DHT22;3800;48.922;9.444;2022-07-29T16:04:00;24.00;99.90
7518;DHT22;3800;48.922;9.444;2022-07-29T16:06:29;24.00;99.90
7518;DHT22;3800;48.922;9.444;2022-07-29T16:08:57;24.00;99.90
7518;DHT22;3800;48.922;9.444;2022-07-29T16:11:25;24.00;99.90
7518;DHT22;3800;48.922;9.444;2022-07-29T16:13:54;24.00;99.90
7518;DHT22;3800;48.922;9.444;2022-07-29T16:16:23;24.00;99.90
7518;DHT22;3800;48.922;9.444;2022-07-29T16:18:51;24.00;99.90
7518;DHT22;3800;48.922;9.444;2022-07-29T16:21:19;24.00;99.90
7518;DHT22;3800;48.922;9.444;2022-07-29T16:23:50;24.00;99.90
7518;DHT22;3800;48.922;9.444;2022-07-29T16:26:18;24.00;99.90
7518;DHT22;3800;48.922;9.444;2022-07-29T16:28:46;24.00;99.90
7518;DHT22;3800;48.922;9.444;2022-07-29T16:31:15;24.00;99.90
7518;DHT22;3800;48.922;9.444;2022-07-29T16:33:43;24.10;99.90
7518;DHT22;3800;48.922;9.444;2022-07-29T16:36:12;24.10;99.90
7518;DHT22;3800;48.922;9.444;2022-07-29T16:38:40;24.10;99.90
7518;DHT22;3800;48.922;9.444;2022-07-29T16:41:09;24.20;99.90